createdAt,value
2022-12-17T00:02:35.778Z,33.17
2022-12-17T00:05:23.478Z,31.03
2022-12-17T00:08:15.334Z,31.80
2022-12-17T00:11:00.997Z,33.17
2022-12-17T00:13:46.532Z,33.13
2022-12-17T00:16:32.239Z,35.00
2022-12-17T00:19:19.193Z,34.03
2022-12-17T00:22:04.790Z,36.47
2022-12-17T00:24:50.380Z,35.57
2022-12-17T00:27:35.776Z,35.10
2022-12-17T00:30:21.363Z,31.90
2022-12-17T00:33:06.131Z,32.03
2022-12-17T00:35:52.708Z,30.90
2022-12-17T00:38:39.100Z,31.97
2022-12-17T00:41:24.604Z,29.20
2022-12-17T00:44:11.030Z,28.80
2022-12-17T00:46:56.561Z,28.47
2022-12-17T00:49:41.968Z,24.57
2022-12-17T00:52:30.242Z,28.33
2022-12-17T00:55:15.977Z,31.27
2022-12-17T00:58:01.503Z,32.33
2022-12-17T01:00:47.148Z,28.20
2022-12-17T01:03:34.132Z,31.03
2022-12-17T01:06:20.495Z,32.17
2022-12-17T01:09:07.592Z,27.47
2022-12-17T01:11:52.992Z,27.27
2022-12-17T01:14:42.003Z,30.97
2022-12-17T01:17:27.529Z,33.07
2022-12-17T01:20:15.314Z,30.63
2022-12-17T01:23:00.962Z,30.60
2022-12-17T01:25:47.757Z,28.83
2022-12-17T01:28:40.865Z,30.87
2022-12-17T01:31:31.454Z,28.47
2022-12-17T01:34:19.894Z,29.77
2022-12-17T01:37:05.952Z,31.70
2022-12-17T01:39:51.626Z,33.47
2022-12-17T01:42:38.293Z,32.80
2022-12-17T01:45:28.617Z,31.40
2022-12-17T01:48:17.645Z,32.97
2022-12-17T01:51:07.845Z,26.60
2022-12-17T01:53:56.447Z,28.20
2022-12-17T01:56:44.671Z,27.23
2022-12-17T01:59:33.556Z,28.37
2022-12-17T02:02:33.659Z,28.80
2022-12-17T02:05:20.080Z,33.53
2022-12-17T02:08:15.581Z,32.37
2022-12-17T02:11:08.175Z,30.37
2022-12-17T02:14:00.213Z,27.87
2022-12-17T02:16:53.423Z,31.57
2022-12-17T02:19:49.717Z,30.10
2022-12-17T02:22:45.620Z,30.03
2022-12-17T02:25:48.195Z,29.80
2022-12-17T02:28:35.121Z,26.47
2022-12-17T02:31:21.134Z,28.43
2022-12-17T02:34:07.332Z,28.83
2022-12-17T02:36:53.824Z,26.93
2022-12-17T02:39:40.333Z,26.90
2022-12-17T02:42:26.311Z,26.47
2022-12-17T02:45:15.266Z,26.40
2022-12-17T02:48:01.992Z,26.63
2022-12-17T02:50:47.325Z,26.30
2022-12-17T02:53:34.581Z,26.10
2022-12-17T02:56:20.180Z,25.30
2022-12-17T02:59:05.436Z,25.77
2022-12-17T03:01:53.562Z,24.30
2022-12-17T03:04:39.264Z,25.80
2022-12-17T03:07:24.936Z,24.20
2022-12-17T03:10:10.480Z,24.40
2022-12-17T03:13:00.144Z,25.23
2022-12-17T03:15:45.724Z,23.67
2022-12-17T03:18:32.690Z,25.47
2022-12-17T03:21:18.016Z,25.70
2022-12-17T03:24:14.841Z,25.87
2022-12-17T03:27:00.181Z,25.47
2022-12-17T03:29:45.672Z,25.37
2022-12-17T03:32:30.952Z,27.17
2022-12-17T03:35:17.654Z,24.70
2022-12-17T03:38:14.722Z,26.13
2022-12-17T03:41:00.259Z,25.40
2022-12-17T03:43:45.886Z,24.80
2022-12-17T03:46:31.131Z,24.27
2022-12-17T03:49:16.672Z,25.17
2022-12-17T03:52:05.666Z,24.67
2022-12-17T03:54:51.229Z,24.23
2022-12-17T03:57:36.476Z,25.20
2022-12-17T04:00:23.598Z,25.00
2022-12-17T04:03:10.438Z,24.90
2022-12-17T04:05:57.558Z,20.90
2022-12-17T04:08:45.312Z,24.90
2022-12-17T04:11:31.630Z,25.53
2022-12-17T04:14:17.874Z,25.83
2022-12-17T04:17:04.361Z,22.63
2022-12-17T04:20:05.740Z,26.43
2022-12-17T04:22:52.789Z,24.80
2022-12-17T04:25:40.514Z,24.97
2022-12-17T04:28:27.580Z,27.47
2022-12-17T04:31:10.510Z,25.03
2022-12-17T04:33:56.943Z,24.93
2022-12-17T04:36:43.313Z,27.43
2022-12-17T04:39:30.044Z,24.17
2022-12-17T04:42:18.181Z,26.60
2022-12-17T04:45:04.407Z,26.73
2022-12-17T04:47:50.604Z,30.13
2022-12-17T04:50:37.254Z,30.17
2022-12-17T04:53:24.871Z,29.97
2022-12-17T04:56:12.755Z,26.27
2022-12-17T04:59:00.449Z,28.83
2022-12-17T05:01:47.089Z,29.23
2022-12-17T05:04:33.460Z,28.33
2022-12-17T05:07:19.695Z,28.97
2022-12-17T05:10:06.062Z,28.73
2022-12-17T05:12:52.247Z,28.00
2022-12-17T05:15:40.185Z,27.17
2022-12-17T05:18:27.411Z,27.37
2022-12-17T05:21:13.817Z,26.87
2022-12-17T05:24:00.649Z,26.00
2022-12-17T05:26:47.921Z,27.30
2022-12-17T05:29:49.372Z,26.13
2022-12-17T05:32:37.725Z,25.80
2022-12-17T05:35:24.728Z,25.23
2022-12-17T05:38:10.477Z,25.13
2022-12-17T05:40:57.367Z,25.93
2022-12-17T05:43:43.823Z,24.20
2022-12-17T05:46:30.218Z,25.20
2022-12-17T05:49:18.510Z,25.13
2022-12-17T05:52:04.830Z,24.57
2022-12-17T05:54:51.280Z,25.07
2022-12-17T05:57:37.149Z,25.03
2022-12-17T06:00:24.492Z,25.37
2022-12-17T06:03:17.188Z,22.97
2022-12-17T06:06:06.036Z,24.97
2022-12-17T06:08:52.543Z,26.37
2022-12-17T06:11:39.021Z,26.67
2022-12-17T06:14:27.461Z,26.33
2022-12-17T06:17:14.435Z,25.83
2022-12-17T06:20:01.062Z,26.33
2022-12-17T06:22:48.422Z,26.13
2022-12-17T06:25:34.002Z,26.10
2022-12-17T06:28:20.869Z,25.13
2022-12-17T06:31:11.450Z,25.07
2022-12-17T06:33:57.202Z,24.67
2022-12-17T06:36:43.432Z,23.80
2022-12-17T06:39:38.577Z,25.10
2022-12-17T06:42:24.425Z,24.80
2022-12-17T06:45:10.057Z,24.30
2022-12-17T06:47:55.423Z,25.70
2022-12-17T06:50:40.989Z,25.33
2022-12-17T06:53:26.352Z,25.00
2022-12-17T06:56:15.897Z,25.50
2022-12-17T06:59:01.528Z,25.57
2022-12-17T07:01:47.538Z,25.40
2022-12-17T07:04:33.883Z,25.70
2022-12-17T07:07:19.361Z,25.03
2022-12-17T07:10:08.024Z,26.03
2022-12-17T07:12:58.937Z,25.57
2022-12-17T07:15:44.603Z,26.80
2022-12-17T07:18:30.173Z,27.33
2022-12-17T07:21:15.789Z,27.00
2022-12-17T07:24:01.213Z,28.40
2022-12-17T07:26:46.831Z,27.80
2022-12-17T07:29:33.681Z,28.67
2022-12-17T07:32:19.045Z,28.37
2022-12-17T07:35:04.763Z,27.47
2022-12-17T07:37:50.305Z,26.67
2022-12-17T07:40:35.720Z,28.67
2022-12-17T07:43:28.489Z,26.53
2022-12-17T07:46:15.204Z,29.33
2022-12-17T07:49:00.646Z,27.77
2022-12-17T07:51:46.178Z,29.20
2022-12-17T07:54:31.764Z,28.23
2022-12-17T07:57:17.198Z,29.83
2022-12-17T08:00:05.064Z,29.67
2022-12-17T08:02:51.928Z,30.13
2022-12-17T08:05:39.495Z,28.20
2022-12-17T08:08:28.521Z,29.87
2022-12-17T08:11:14.200Z,31.27
2022-12-17T08:13:59.756Z,30.43
2022-12-17T08:16:45.297Z,30.57
2022-12-17T08:19:31.824Z,30.03
2022-12-17T08:22:22.719Z,31.37
2022-12-17T08:25:08.244Z,30.67
2022-12-17T08:27:53.701Z,34.37
2022-12-17T08:30:39.719Z,29.87
2022-12-17T08:33:25.753Z,28.97
2022-12-17T08:36:13.918Z,29.20
2022-12-17T08:38:59.358Z,29.40
2022-12-17T08:41:46.586Z,29.97
2022-12-17T08:44:33.829Z,29.57
2022-12-17T08:47:19.160Z,29.60
2022-12-17T08:50:04.691Z,29.43
2022-12-17T08:52:51.441Z,29.33
2022-12-17T08:55:36.933Z,30.63
2022-12-17T08:58:22.273Z,30.60
2022-12-17T09:01:07.435Z,30.00
2022-12-17T09:03:53.088Z,31.53
2022-12-17T09:06:39.142Z,32.00
2022-12-17T09:09:26.383Z,32.27
2022-12-17T09:12:11.871Z,30.90
2022-12-17T09:14:57.200Z,33.73
2022-12-17T09:17:42.936Z,30.00
2022-12-17T09:20:29.785Z,31.43
2022-12-17T09:23:15.445Z,31.33
2022-12-17T09:26:02.168Z,31.13
2022-12-17T09:28:47.584Z,30.67
2022-12-17T09:31:37.192Z,32.17
2022-12-17T09:34:23.277Z,31.00
2022-12-17T09:37:08.893Z,32.50
2022-12-17T09:39:54.458Z,32.20
2022-12-17T09:42:51.769Z,33.30
2022-12-17T09:45:47.770Z,31.70
2022-12-17T09:48:41.252Z,33.53
2022-12-17T09:51:38.812Z,32.60
2022-12-17T09:54:30.806Z,31.70
2022-12-17T09:57:17.149Z,30.97
2022-12-17T10:00:12.609Z,32.20
2022-12-17T10:02:58.343Z,28.53
2022-12-17T10:05:47.293Z,32.37
2022-12-17T10:08:47.693Z,31.13
2022-12-17T10:11:38.684Z,30.83
2022-12-17T10:14:35.573Z,45.10
2022-12-17T10:17:22.872Z,33.10
2022-12-17T10:20:10.077Z,36.93
2022-12-17T10:23:03.146Z,33.47
2022-12-17T10:25:48.944Z,35.20
2022-12-17T10:28:36.571Z,35.10
2022-12-17T10:31:28.144Z,32.37
2022-12-17T10:34:16.128Z,33.10
2022-12-17T10:37:05.050Z,30.63
2022-12-17T10:39:51.312Z,31.70
2022-12-17T10:42:40.352Z,31.07
2022-12-17T10:45:43.819Z,31.67
2022-12-17T10:48:40.623Z,32.63
2022-12-17T10:51:38.363Z,31.20
2022-12-17T10:54:36.880Z,29.93
2022-12-17T10:57:24.591Z,30.53
2022-12-17T11:00:10.569Z,29.97
2022-12-17T11:02:56.327Z,28.50
2022-12-17T11:05:46.506Z,27.57
2022-12-17T11:08:35.216Z,28.97
2022-12-17T11:11:25.450Z,26.80
2022-12-17T11:14:12.608Z,26.97
2022-12-17T11:17:03.061Z,26.97
2022-12-17T11:19:54.558Z,26.87
2022-12-17T11:22:47.049Z,25.93
2022-12-17T11:25:47.288Z,24.37
2022-12-17T11:28:40.248Z,25.07
2022-12-17T11:31:43.861Z,24.60
2022-12-17T11:34:39.852Z,23.80
2022-12-17T11:37:34.145Z,23.13
2022-12-17T11:40:29.712Z,22.17
2022-12-17T11:43:21.816Z,23.23
2022-12-17T11:46:18.297Z,23.43
2022-12-17T11:49:10.219Z,23.10
2022-12-17T11:52:02.284Z,22.73
2022-12-17T11:54:55.271Z,23.63
2022-12-17T11:57:48.409Z,23.67
2022-12-17T12:00:38.345Z,23.77
2022-12-17T12:03:39.345Z,23.13
2022-12-17T12:06:32.303Z,23.43
2022-12-17T12:09:29.159Z,24.17
2022-12-17T12:12:22.676Z,22.93
2022-12-17T12:15:21.516Z,22.17
2022-12-17T12:18:14.927Z,21.43
2022-12-17T12:21:35.167Z,21.23
2022-12-17T12:24:33.933Z,21.33
2022-12-17T12:27:29.759Z,22.27
2022-12-17T12:30:21.809Z,23.50
2022-12-17T12:33:17.533Z,22.77
2022-12-17T12:36:03.744Z,21.80
2022-12-17T12:38:57.885Z,20.83
2022-12-17T12:41:54.684Z,22.27
2022-12-17T12:44:49.788Z,21.73
2022-12-17T12:47:42.417Z,20.10
2022-12-17T12:50:38.985Z,21.83
2022-12-17T12:53:28.452Z,19.27
2022-12-17T12:56:14.009Z,21.60
2022-12-17T12:58:59.921Z,20.97
2022-12-17T13:01:52.939Z,23.37
2022-12-17T13:04:52.545Z,23.07
2022-12-17T13:07:25.152Z,20.80
2022-12-17T13:09:55.654Z,21.87
2022-12-17T13:12:31.896Z,22.40
2022-12-17T13:15:23.195Z,21.10
2022-12-17T13:18:03.002Z,21.23
2022-12-17T13:20:33.029Z,21.93
2022-12-17T13:23:27.760Z,23.53
2022-12-17T13:26:23.940Z,22.73
2022-12-17T13:29:11.349Z,22.80
2022-12-17T13:31:49.111Z,23.30
2022-12-17T13:34:22.436Z,24.07
2022-12-17T13:36:58.460Z,22.17
2022-12-17T13:39:40.792Z,24.13
2022-12-17T13:42:19.376Z,21.13
2022-12-17T13:44:48.250Z,24.37
2022-12-17T13:47:23.093Z,23.80
2022-12-17T13:50:24.341Z,24.80
2022-12-17T13:52:41.112Z,23.90
2022-12-17T13:55:18.200Z,24.87
2022-12-17T13:57:47.352Z,27.33
2022-12-17T14:00:21.964Z,28.87
2022-12-17T14:02:50.702Z,30.33
2022-12-17T14:05:27.879Z,27.37
2022-12-17T14:07:59.558Z,25.47
2022-12-17T14:10:30.053Z,27.47
2022-12-17T14:13:05.644Z,24.27
2022-12-17T14:15:34.407Z,24.57
2022-12-17T14:18:03.159Z,24.67
2022-12-17T14:20:33.265Z,23.20
2022-12-17T14:23:05.279Z,22.03
2022-12-17T14:25:37.887Z,24.33
2022-12-17T14:28:20.295Z,22.73
2022-12-17T14:31:24.201Z,23.37
2022-12-17T14:33:38.880Z,23.33
2022-12-17T14:36:09.319Z,24.57
2022-12-17T14:38:38.954Z,23.63
2022-12-17T14:41:26.746Z,25.00
2022-12-17T14:43:59.794Z,26.10
2022-12-17T14:46:29.094Z,26.40
2022-12-17T14:49:04.885Z,24.80
2022-12-17T14:51:35.625Z,23.93
2022-12-17T14:54:08.265Z,24.10
2022-12-17T14:56:37.649Z,24.70
2022-12-17T14:59:05.616Z,25.20
2022-12-17T15:01:35.679Z,23.97
2022-12-17T15:04:04.218Z,24.77
2022-12-17T15:06:32.215Z,25.13
2022-12-17T15:09:00.220Z,25.40
2022-12-17T15:11:28.439Z,26.10
2022-12-17T15:13:57.797Z,25.43
2022-12-17T15:16:26.069Z,31.10
2022-12-17T15:18:54.125Z,30.93
2022-12-17T15:21:22.462Z,39.00
2022-12-17T15:23:50.573Z,34.27
2022-12-17T15:26:19.602Z,32.13
2022-12-17T15:28:47.604Z,32.53
2022-12-17T15:31:21.875Z,31.47
2022-12-17T15:33:52.642Z,28.07
2022-12-17T15:36:20.749Z,30.93
2022-12-17T15:38:48.773Z,28.77
2022-12-17T15:41:34.057Z,29.43
2022-12-17T15:44:02.260Z,28.77
2022-12-17T15:46:31.700Z,29.33
2022-12-17T15:48:59.793Z,29.70
2022-12-17T15:51:27.863Z,27.47
2022-12-17T15:53:55.848Z,28.17
2022-12-17T15:56:25.712Z,28.40
2022-12-17T15:58:53.900Z,28.40
2022-12-17T16:01:22.045Z,27.47
2022-12-17T16:03:51.575Z,29.03
2022-12-17T16:06:19.737Z,28.57
2022-12-17T16:08:47.749Z,29.87
2022-12-17T16:11:16.958Z,28.30
2022-12-17T16:13:45.005Z,29.03
2022-12-17T16:16:13.147Z,29.03
2022-12-17T16:18:41.525Z,28.90
2022-12-17T16:21:11.066Z,28.10
2022-12-17T16:23:39.285Z,26.80
2022-12-17T16:26:09.402Z,27.60
2022-12-17T16:28:37.908Z,28.43
2022-12-17T16:31:08.471Z,28.43
2022-12-17T16:33:38.255Z,29.03
2022-12-17T16:36:07.902Z,29.77
2022-12-17T16:38:37.658Z,28.40
2022-12-17T16:41:06.129Z,26.83
2022-12-17T16:43:35.627Z,29.03
2022-12-17T16:46:09.095Z,28.23
2022-12-17T16:48:40.543Z,27.57
2022-12-17T16:51:22.611Z,28.67
2022-12-17T16:53:57.497Z,27.17
2022-12-17T16:56:28.510Z,29.97
2022-12-17T16:58:56.681Z,29.13
2022-12-17T17:01:26.613Z,28.00
2022-12-17T17:03:55.320Z,27.63
2022-12-17T17:06:27.729Z,27.53
2022-12-17T17:08:59.656Z,29.23
2022-12-17T17:11:27.660Z,28.70
2022-12-17T17:13:55.963Z,32.07
2022-12-17T17:16:25.794Z,29.33
2022-12-17T17:18:55.219Z,30.30
2022-12-17T17:21:27.991Z,27.63
2022-12-17T17:23:59.847Z,29.50
2022-12-17T17:26:28.606Z,27.80
2022-12-17T17:28:57.181Z,29.43
2022-12-17T17:31:46.504Z,28.40
2022-12-17T17:34:15.514Z,27.63
2022-12-17T17:36:43.949Z,28.33
2022-12-17T17:39:13.317Z,28.83
2022-12-17T17:41:41.292Z,29.80
2022-12-17T17:44:12.402Z,28.20
2022-12-17T17:46:40.923Z,28.77
2022-12-17T17:49:09.735Z,30.63
2022-12-17T17:54:31.697Z,30.40
2022-12-17T17:56:59.736Z,29.63
2022-12-17T17:59:33.273Z,28.30
2022-12-17T18:02:02.729Z,30.53
2022-12-17T18:04:31.777Z,30.33
2022-12-17T18:07:24.135Z,30.57
2022-12-17T18:09:49.204Z,30.70
2022-12-17T18:12:34.861Z,29.13
2022-12-17T18:15:14.376Z,30.37
2022-12-17T18:17:43.558Z,28.53
2022-12-17T18:20:13.644Z,29.00
2022-12-17T18:22:41.853Z,29.13
2022-12-17T18:25:11.411Z,30.43
2022-12-17T18:27:39.702Z,27.73
2022-12-17T18:30:08.683Z,29.67
2022-12-17T18:32:36.700Z,29.03
2022-12-17T18:35:04.933Z,29.33
2022-12-17T18:37:33.030Z,30.77
2022-12-17T18:40:01.128Z,29.40
2022-12-17T18:42:47.776Z,30.50
2022-12-17T18:45:15.907Z,30.77
2022-12-17T18:47:44.699Z,27.57
2022-12-17T18:50:13.968Z,29.20
2022-12-17T18:52:42.334Z,28.70
2022-12-17T18:55:10.441Z,28.03
2022-12-17T18:57:39.887Z,29.33
2022-12-17T19:00:09.173Z,29.97
2022-12-17T19:02:37.420Z,30.70
2022-12-17T19:05:05.936Z,30.57
2022-12-17T19:07:34.015Z,30.23
2022-12-17T19:10:02.008Z,30.20
2022-12-17T19:12:30.087Z,29.87
2022-12-17T19:14:59.536Z,29.90
2022-12-17T19:17:27.584Z,30.27
2022-12-17T19:19:55.678Z,30.53
2022-12-17T19:22:23.745Z,31.30
2022-12-17T19:24:51.906Z,30.63
2022-12-17T19:27:19.989Z,31.00
2022-12-17T19:29:49.866Z,29.17
2022-12-17T19:32:19.758Z,30.43
2022-12-17T19:34:47.901Z,31.97
2022-12-17T19:37:16.053Z,32.93
2022-12-17T19:39:44.073Z,35.20
2022-12-17T19:42:24.875Z,34.37
2022-12-17T19:44:54.213Z,30.90
2022-12-17T19:47:24.598Z,30.53
2022-12-17T19:49:52.869Z,30.73
2022-12-17T19:52:20.969Z,28.53
2022-12-17T19:54:50.999Z,29.33
2022-12-17T19:57:19.042Z,28.83
2022-12-17T19:59:47.245Z,29.73
2022-12-17T20:02:17.335Z,26.40
2022-12-17T20:04:47.052Z,29.13
2022-12-17T20:07:15.041Z,26.60
2022-12-17T20:09:44.585Z,27.60
2022-12-17T20:12:13.300Z,27.47
2022-12-17T20:14:41.400Z,27.43
2022-12-17T20:17:10.328Z,26.30
2022-12-17T20:19:38.750Z,27.13
2022-12-17T20:22:08.983Z,27.17
2022-12-17T20:24:39.166Z,25.63
2022-12-17T20:27:07.579Z,27.40
2022-12-17T20:29:35.772Z,26.97
2022-12-17T20:32:04.207Z,26.73
2022-12-17T20:34:32.373Z,26.77
2022-12-17T20:37:00.395Z,28.03
2022-12-17T20:39:29.930Z,27.83
2022-12-17T20:41:58.309Z,25.77
2022-12-17T20:44:26.673Z,26.40
2022-12-17T20:46:54.747Z,25.80
2022-12-17T20:49:22.995Z,23.43
2022-12-17T20:51:51.050Z,25.30
2022-12-17T20:54:19.228Z,28.87
2022-12-17T20:56:49.005Z,28.90
2022-12-17T20:59:19.023Z,27.73
2022-12-17T21:01:54.223Z,27.13
2022-12-17T21:04:24.379Z,26.43
2022-12-17T21:06:52.870Z,27.30
2022-12-17T21:09:22.505Z,27.17
2022-12-17T21:11:52.205Z,26.97
2022-12-17T21:14:20.876Z,25.70
2022-12-17T21:16:49.390Z,25.93
2022-12-17T21:19:21.960Z,27.10
2022-12-17T21:21:50.319Z,25.60
2022-12-17T21:24:18.455Z,25.70
2022-12-17T21:26:47.082Z,24.67
2022-12-17T21:29:17.069Z,25.57
2022-12-17T21:31:47.629Z,25.63
2022-12-17T21:34:17.999Z,24.30
2022-12-17T21:36:46.097Z,24.50
2022-12-17T21:39:15.297Z,23.10
2022-12-17T21:42:04.993Z,21.23
2022-12-17T21:44:34.426Z,24.53
2022-12-17T21:47:02.852Z,23.37
2022-12-17T21:49:31.350Z,22.80
2022-12-17T21:52:00.678Z,23.63
2022-12-17T21:54:28.946Z,24.07
2022-12-17T21:56:57.057Z,24.20
2022-12-17T21:59:25.313Z,24.60
2022-12-17T22:01:57.303Z,23.17
2022-12-17T22:04:26.554Z,25.10
2022-12-17T22:06:58.997Z,24.17
2022-12-17T22:10:24.359Z,23.30
2022-12-17T22:12:41.812Z,20.53
2022-12-17T22:15:12.220Z,23.63
2022-12-17T22:17:43.137Z,23.57
2022-12-17T22:20:12.050Z,22.37
2022-12-17T22:22:40.174Z,22.50
2022-12-17T22:25:10.404Z,23.30
2022-12-17T22:27:39.971Z,24.63
2022-12-17T22:30:30.685Z,23.17
2022-12-17T22:33:30.088Z,21.80
2022-12-17T22:38:04.714Z,21.93
2022-12-17T22:43:38.745Z,20.47
2022-12-17T22:44:35.977Z,20.30
2022-12-17T22:44:51.390Z,21.30
2022-12-17T22:47:20.949Z,20.10
2022-12-17T22:49:50.425Z,20.80
2022-12-17T22:52:19.628Z,20.10
2022-12-17T22:54:48.581Z,19.60
2022-12-17T22:57:34.803Z,20.37
2022-12-17T23:00:14.010Z,20.60
2022-12-17T23:02:48.586Z,18.87
2022-12-17T23:05:18.067Z,18.23
2022-12-17T23:07:46.098Z,19.87
2022-12-17T23:10:14.137Z,19.33
2022-12-17T23:12:54.833Z,19.03
2022-12-17T23:15:25.964Z,18.97
2022-12-17T23:17:56.700Z,18.73
2022-12-17T23:20:27.550Z,17.53
2022-12-17T23:22:55.792Z,19.00
2022-12-17T23:25:24.273Z,17.77
2022-12-17T23:27:53.082Z,18.87
2022-12-17T23:30:22.017Z,17.93
2022-12-17T23:32:51.798Z,17.40
2022-12-17T23:35:19.966Z,18.10
2022-12-17T23:37:49.428Z,19.10
2022-12-17T23:40:17.435Z,17.73
2022-12-17T23:42:45.437Z,16.37
2022-12-17T23:45:13.555Z,16.47
2022-12-17T23:47:42.218Z,17.43
2022-12-17T23:50:11.551Z,17.10
2022-12-17T23:52:39.860Z,16.90
2022-12-17T23:55:11.427Z,17.43
2022-12-17T23:57:39.505Z,17.40
